KAGC METAR
PITTSBURGH/ALLEG, PA
Metar
KAGC 160353Z 18004KT 10SM CLR 24/18 A3010 RMK AO2 SLP188 T02440178

03:53 UTC

Wind: 180° 4kt

Visibility: 10 SM

Sky:

Temp: 24 deg C / 75.2 deg F

Dewpoint: 18 deg C / 64.4 deg F

Pressure: 30.1 inHg

TAF
KAGC 152320Z 1600/1624 VRB03KT P6SM FEW250 FM161000 VRB02KT P6SM BKN100 FM161600 21005KT P6SM VCSH BKN090